Artesian, South Dakota
Current Conditions -  °F | °C
As of 3:53 PM on Thursday 23 Oct 2014 (Local Time) from KMHE Reporting Station
Clear Clear  
Wind Chill: 73°   Ceiling: Unl
Heat Index: 73°   Visibility: 10mi
Dew Point: 48°   Wind: 10mph
Humidity: 41%   Direction: 180°S
Pressure: 29.91"   Gusts: NA
Location:  44.01°N, 97.92°W
Report Text: KMHE 232053Z AUTO 18009KT 10SM CLR 23/09 A2991 RMK AO2 SLP128 T02280089 56027
Loading
Personal Weather Stations






























Interactive Weather Map New forecast layout! Learn more

10-Day Weather Forecast

Advertisements
Track Severe Weather on mobile